createdAt,value
2022-12-27T00:01:49.885Z,20.70
2022-12-27T00:04:18.178Z,21.17
2022-12-27T00:06:51.867Z,19.13
2022-12-27T00:09:20.501Z,17.97
2022-12-27T00:11:48.921Z,16.57
2022-12-27T00:14:17.227Z,15.87
2022-12-27T00:16:45.535Z,16.33
2022-12-27T00:19:13.897Z,19.77
2022-12-27T00:21:42.321Z,17.73
2022-12-27T00:24:12.705Z,17.73
2022-12-27T00:26:41.942Z,15.90
2022-12-27T00:29:10.936Z,15.80
2022-12-27T00:31:39.869Z,15.73
2022-12-27T00:34:08.667Z,20.00
2022-12-27T00:36:37.137Z,18.47
2022-12-27T00:39:05.856Z,18.23
2022-12-27T00:41:35.567Z,16.30
2022-12-27T00:44:05.700Z,15.30
2022-12-27T00:46:34.042Z,12.63
2022-12-27T00:49:02.970Z,13.27
2022-12-27T00:51:31.359Z,12.03
2022-12-27T00:53:59.808Z,12.03
2022-12-27T00:56:31.590Z,13.93
2022-12-27T00:59:03.032Z,12.33
2022-12-27T01:01:34.254Z,13.33
2022-12-27T01:04:03.311Z,12.57
2022-12-27T01:06:33.866Z,16.33
2022-12-27T01:09:03.543Z,16.00
2022-12-27T01:11:32.337Z,17.07
2022-12-27T01:14:03.678Z,18.33
2022-12-27T01:16:33.075Z,17.60
2022-12-27T01:19:02.099Z,16.97
2022-12-27T01:21:31.508Z,14.23
2022-12-27T01:24:00.455Z,14.03
2022-12-27T01:26:29.589Z,13.40
2022-12-27T01:28:58.131Z,13.93
2022-12-27T01:31:29.635Z,11.60
2022-12-27T01:34:00.081Z,12.03
2022-12-27T01:36:30.282Z,11.63
2022-12-27T01:39:00.198Z,11.03
2022-12-27T01:41:48.623Z,10.40
2022-12-27T01:44:59.609Z,11.30
2022-12-27T01:47:47.542Z,11.30
2022-12-27T01:50:21.062Z,11.73
2022-12-27T01:52:54.237Z,12.33
2022-12-27T01:55:28.376Z,12.97
2022-12-27T01:58:02.223Z,16.10
2022-12-27T02:00:30.759Z,16.00
2022-12-27T02:03:03.788Z,18.40
2022-12-27T02:05:32.530Z,22.57
2022-12-27T02:08:17.948Z,17.47
2022-12-27T02:10:47.125Z,21.60
2022-12-27T02:13:17.448Z,26.67
2022-12-27T02:15:45.866Z,21.03
2022-12-27T02:18:15.799Z,19.03
2022-12-27T02:21:07.696Z,16.97
2022-12-27T02:24:09.480Z,25.70
2022-12-27T02:26:58.474Z,19.67
2022-12-27T02:29:45.274Z,16.27
2022-12-27T02:32:17.692Z,16.70
2022-12-27T02:34:55.903Z,15.73
2022-12-27T02:37:27.832Z,16.70
2022-12-27T02:40:19.652Z,16.87
2022-12-27T02:43:06.312Z,14.80
2022-12-27T02:45:59.630Z,14.33
2022-12-27T02:48:45.267Z,13.23
2022-12-27T02:51:46.492Z,14.57
2022-12-27T02:54:35.559Z,14.13
2022-12-27T02:57:12.733Z,17.67
2022-12-27T03:00:21.189Z,17.07
2022-12-27T03:03:24.357Z,18.50
2022-12-27T03:06:38.119Z,22.50
2022-12-27T03:09:44.387Z,19.77
2022-12-27T03:12:42.538Z,20.63
2022-12-27T03:15:39.603Z,17.50
2022-12-27T03:18:15.053Z,20.67
2022-12-27T03:21:11.313Z,20.07
2022-12-27T03:23:59.851Z,20.03
2022-12-27T03:26:29.607Z,24.80
2022-12-27T03:29:19.047Z,24.90
2022-12-27T03:32:09.841Z,27.10
2022-12-27T03:34:42.107Z,26.07
2022-12-27T03:37:31.740Z,25.73
2022-12-27T03:40:08.164Z,25.53
2022-12-27T03:42:58.893Z,25.90
2022-12-27T03:45:45.782Z,25.27
2022-12-27T03:48:21.289Z,28.20
2022-12-27T03:50:56.061Z,25.97
2022-12-27T03:53:31.481Z,25.13
2022-12-27T03:56:00.220Z,26.10
2022-12-27T03:58:28.560Z,22.73
2022-12-27T04:00:56.965Z,19.97
2022-12-27T04:03:26.449Z,20.13
2022-12-27T04:05:56.051Z,19.70
2022-12-27T04:08:41.828Z,21.33
2022-12-27T04:11:27.970Z,24.63
2022-12-27T04:14:14.008Z,23.50
2022-12-27T04:16:59.803Z,18.67
2022-12-27T04:19:45.335Z,22.27
2022-12-27T04:22:32.811Z,20.67
2022-12-27T04:25:18.651Z,22.20
2022-12-27T04:28:04.841Z,20.27
2022-12-27T04:30:51.789Z,22.23
2022-12-27T04:33:37.683Z,21.77
2022-12-27T04:36:06.797Z,21.00
2022-12-27T04:38:36.483Z,18.63
2022-12-27T04:41:22.053Z,18.70
2022-12-27T04:44:07.947Z,18.93
2022-12-27T04:46:54.389Z,16.67
2022-12-27T04:49:43.141Z,16.47
2022-12-27T04:52:33.235Z,14.87
2022-12-27T04:55:15.178Z,15.57
2022-12-27T04:57:43.594Z,14.70
2022-12-27T05:00:30.997Z,14.03
2022-12-27T05:03:00.049Z,14.97
2022-12-27T05:05:28.763Z,14.07
2022-12-27T05:08:16.776Z,15.37
2022-12-27T05:11:03.969Z,14.53
2022-12-27T05:13:46.240Z,15.63
2022-12-27T05:16:15.532Z,15.57
2022-12-27T05:18:43.919Z,14.07
2022-12-27T05:21:12.631Z,15.07
2022-12-27T05:24:04.897Z,15.47
2022-12-27T05:26:36.468Z,13.43
2022-12-27T05:29:04.816Z,12.87
2022-12-27T05:31:35.317Z,12.17
2022-12-27T05:34:03.883Z,11.80
2022-12-27T05:36:32.208Z,11.67
2022-12-27T05:39:00.680Z,11.27
2022-12-27T05:41:29.009Z,12.77
2022-12-27T05:44:05.006Z,11.87
2022-12-27T05:46:36.177Z,11.63
2022-12-27T05:49:04.904Z,12.00
2022-12-27T05:51:33.211Z,11.90
2022-12-27T05:54:01.573Z,13.13
2022-12-27T05:56:29.921Z,15.20
2022-12-27T05:58:59.620Z,10.87
2022-12-27T06:01:27.999Z,9.90
2022-12-27T06:03:56.584Z,8.80
2022-12-27T06:06:24.915Z,8.80
2022-12-27T06:08:53.230Z,8.47
2022-12-27T06:11:21.709Z,7.00
2022-12-27T06:13:53.566Z,7.20
2022-12-27T06:16:23.881Z,7.33
2022-12-27T06:18:52.374Z,7.70
2022-12-27T06:21:22.280Z,6.67
2022-12-27T06:23:51.288Z,7.17
2022-12-27T06:26:22.031Z,7.33
2022-12-27T06:28:50.970Z,7.07
2022-12-27T06:31:20.661Z,6.47
2022-12-27T06:33:52.732Z,7.07
2022-12-27T06:36:23.935Z,6.80
2022-12-27T06:38:52.472Z,7.63
2022-12-27T06:41:21.052Z,6.93
2022-12-27T06:43:49.618Z,6.90
2022-12-27T06:46:19.483Z,6.80
2022-12-27T06:48:48.577Z,6.93
2022-12-27T06:51:20.429Z,6.67
2022-12-27T06:53:49.046Z,7.57
2022-12-27T06:56:19.177Z,6.93
2022-12-27T06:58:48.701Z,6.43
2022-12-27T07:01:19.613Z,5.70
2022-12-27T07:03:51.012Z,4.87
2022-12-27T07:06:21.790Z,3.60
2022-12-27T07:08:51.248Z,2.90
2022-12-27T07:11:21.662Z,2.20
2022-12-27T07:13:51.962Z,1.93
2022-12-27T07:16:22.774Z,2.10
2022-12-27T07:18:51.171Z,2.30
2022-12-27T07:21:22.520Z,2.07
2022-12-27T07:23:51.173Z,2.03
2022-12-27T07:26:21.656Z,1.30
2022-12-27T07:28:50.733Z,1.20
2022-12-27T07:31:21.017Z,1.20
2022-12-27T07:33:49.508Z,0.90
2022-12-27T07:36:21.174Z,1.53
2022-12-27T07:38:49.781Z,1.20
2022-12-27T07:41:19.423Z,1.60
2022-12-27T07:43:47.865Z,2.07
2022-12-27T07:46:18.789Z,2.27
2022-12-27T07:48:48.218Z,2.40
2022-12-27T07:51:18.099Z,3.10
2022-12-27T07:53:49.942Z,3.47
2022-12-27T07:56:25.836Z,4.33
2022-12-27T07:58:56.563Z,5.47
2022-12-27T08:01:27.255Z,5.17
2022-12-27T08:03:55.981Z,5.80
2022-12-27T08:06:28.291Z,5.90
2022-12-27T08:09:00.111Z,6.10
2022-12-27T08:11:30.176Z,5.30
2022-12-27T08:13:58.946Z,5.97
2022-12-27T08:16:28.271Z,5.73
2022-12-27T08:18:57.204Z,5.33
2022-12-27T08:21:25.660Z,5.37
2022-12-27T08:23:53.960Z,5.57
2022-12-27T08:26:24.392Z,6.60
2022-12-27T08:28:52.713Z,6.97
2022-12-27T08:31:21.295Z,6.40
2022-12-27T08:33:56.507Z,6.37
2022-12-27T08:39:15.286Z,6.47
2022-12-27T08:41:45.051Z,7.07
2022-12-27T08:44:13.718Z,7.03
2022-12-27T08:46:42.241Z,7.47
2022-12-27T08:49:10.640Z,7.60
2022-12-27T08:51:41.481Z,7.80
2022-12-27T08:54:10.355Z,7.43
2022-12-27T08:56:38.791Z,8.30
2022-12-27T08:59:08.468Z,8.30
2022-12-27T09:01:36.950Z,8.47
2022-12-27T09:04:05.441Z,7.70
2022-12-27T09:06:33.995Z,8.60
2022-12-27T09:09:02.302Z,7.40
2022-12-27T09:11:33.545Z,7.33
2022-12-27T09:14:03.621Z,8.03
2022-12-27T09:16:35.836Z,7.23
2022-12-27T09:19:05.753Z,7.50
2022-12-27T09:21:35.478Z,7.50
2022-12-27T09:24:04.498Z,7.40
2022-12-27T09:26:33.002Z,6.87
2022-12-27T09:29:01.960Z,6.70
2022-12-27T09:31:30.669Z,7.80
2022-12-27T09:34:01.190Z,7.20
2022-12-27T09:36:30.801Z,7.67
2022-12-27T09:39:00.499Z,7.10
2022-12-27T09:42:45.974Z,8.10
2022-12-27T09:44:40.945Z,7.57
2022-12-27T09:47:13.886Z,7.93
2022-12-27T09:49:47.309Z,8.10
2022-12-27T09:52:20.029Z,8.23
2022-12-27T09:55:04.419Z,7.73
2022-12-27T09:57:38.406Z,7.80
2022-12-27T10:00:15.831Z,7.40
2022-12-27T10:02:45.715Z,6.87
2022-12-27T10:05:22.113Z,7.47
2022-12-27T10:08:18.211Z,7.07
2022-12-27T10:10:56.323Z,7.73
2022-12-27T10:13:44.170Z,7.73
2022-12-27T10:16:22.506Z,7.53
2022-12-27T10:19:09.439Z,8.20
2022-12-27T10:21:43.138Z,8.40
2022-12-27T10:24:20.597Z,8.87
2022-12-27T10:26:49.071Z,8.27
2022-12-27T10:29:22.988Z,7.50
2022-12-27T10:31:51.965Z,7.50
2022-12-27T10:34:24.474Z,7.60
2022-12-27T10:36:54.682Z,8.10
2022-12-27T10:39:28.403Z,7.30
2022-12-27T10:42:05.141Z,7.43
2022-12-27T10:44:33.551Z,7.70
2022-12-27T10:47:02.194Z,8.07
2022-12-27T10:49:32.088Z,7.23
2022-12-27T10:52:11.853Z,7.07
2022-12-27T10:54:53.258Z,7.30
2022-12-27T10:57:28.316Z,7.60
2022-12-27T11:00:17.781Z,7.20
2022-12-27T11:02:54.070Z,7.13
2022-12-27T11:05:24.543Z,7.00
2022-12-27T11:07:54.679Z,7.53
2022-12-27T11:10:25.240Z,6.87
2022-12-27T11:13:01.967Z,7.13
2022-12-27T11:15:33.554Z,6.90
2022-12-27T11:18:04.865Z,6.97
2022-12-27T11:20:38.543Z,6.70
2022-12-27T11:23:17.265Z,6.80
2022-12-27T11:25:53.277Z,7.00
2022-12-27T11:28:29.188Z,6.40
2022-12-27T11:30:59.557Z,5.77
2022-12-27T11:33:34.611Z,6.60
2022-12-27T11:36:03.113Z,6.40
2022-12-27T11:38:35.293Z,6.47
2022-12-27T11:41:06.710Z,6.80
2022-12-27T11:43:42.222Z,6.20
2022-12-27T11:46:23.945Z,6.47
2022-12-27T11:48:57.335Z,6.43
2022-12-27T11:51:50.389Z,6.60
2022-12-27T11:54:43.603Z,6.57
2022-12-27T11:57:25.652Z,7.03
2022-12-27T12:00:00.969Z,6.60
2022-12-27T12:02:38.900Z,6.57
2022-12-27T12:05:39.270Z,6.90
2022-12-27T12:08:49.095Z,7.20
2022-12-27T12:11:32.203Z,7.73
2022-12-27T12:14:36.199Z,7.47
2022-12-27T12:17:16.789Z,7.40
2022-12-27T12:20:18.411Z,7.43
2022-12-27T12:23:03.649Z,7.70
2022-12-27T12:26:17.006Z,7.83
2022-12-27T12:29:06.215Z,7.50
2022-12-27T12:31:51.285Z,7.43
2022-12-27T12:34:35.154Z,8.47
2022-12-27T12:37:28.961Z,9.10
2022-12-27T12:40:28.137Z,8.60
2022-12-27T12:43:11.821Z,7.50
2022-12-27T12:45:59.553Z,7.53
2022-12-27T12:48:58.813Z,7.70
2022-12-27T12:51:47.984Z,7.37
2022-12-27T12:54:33.081Z,7.07
2022-12-27T12:57:17.543Z,7.63
2022-12-27T13:00:12.832Z,7.13
2022-12-27T13:03:18.993Z,8.10
2022-12-27T13:05:52.840Z,8.43
2022-12-27T13:08:30.589Z,7.77
2022-12-27T13:11:31.024Z,8.00
2022-12-27T13:14:19.960Z,7.50
2022-12-27T13:16:54.510Z,7.20
2022-12-27T13:19:50.879Z,7.10
2022-12-27T13:22:32.805Z,7.03
2022-12-27T13:25:14.315Z,7.40
2022-12-27T13:27:52.984Z,7.10
2022-12-27T13:30:23.736Z,6.77
2022-12-27T13:33:06.642Z,7.30
2022-12-27T13:35:51.698Z,7.20
2022-12-27T13:38:33.177Z,6.80
2022-12-27T13:41:30.387Z,7.20
2022-12-27T13:44:24.812Z,6.40
2022-12-27T13:47:18.915Z,6.43
2022-12-27T13:50:05.173Z,7.53
2022-12-27T13:52:53.262Z,6.67
2022-12-27T13:55:55.164Z,7.10
2022-12-27T13:58:59.363Z,7.27
2022-12-27T14:01:52.676Z,7.07
2022-12-27T14:04:47.176Z,8.10
2022-12-27T14:07:36.204Z,7.70
2022-12-27T14:10:26.990Z,8.47
2022-12-27T14:13:01.269Z,8.70
2022-12-27T14:16:08.168Z,8.83
2022-12-27T14:19:01.414Z,8.80
2022-12-27T14:21:59.701Z,7.93
2022-12-27T14:25:05.902Z,7.90
2022-12-27T14:28:33.383Z,7.60
2022-12-27T14:31:44.860Z,7.70
2022-12-27T14:34:35.529Z,9.00
2022-12-27T14:37:46.440Z,8.20
2022-12-27T14:40:35.167Z,9.00
2022-12-27T14:43:32.426Z,7.17
2022-12-27T14:46:42.316Z,7.90
2022-12-27T14:49:46.206Z,7.80
2022-12-27T14:52:49.589Z,8.03
2022-12-27T14:55:40.848Z,8.80
2022-12-27T14:58:33.036Z,8.60
2022-12-27T15:01:10.784Z,8.13
2022-12-27T15:04:00.308Z,8.80
2022-12-27T15:06:56.736Z,8.20
2022-12-27T15:09:34.774Z,9.00
2022-12-27T15:12:15.381Z,9.00
2022-12-27T15:15:18.991Z,8.70
2022-12-27T15:18:13.679Z,9.03
2022-12-27T15:21:08.849Z,9.80
2022-12-27T15:23:48.674Z,8.73
2022-12-27T15:26:27.426Z,9.03
2022-12-27T15:29:11.446Z,8.20
2022-12-27T15:31:51.593Z,8.50
2022-12-27T15:34:38.620Z,8.60
2022-12-27T15:37:07.935Z,8.30
2022-12-27T15:39:51.587Z,7.97
2022-12-27T15:42:48.796Z,8.20
2022-12-27T15:45:30.456Z,8.20
2022-12-27T15:48:29.100Z,7.90
2022-12-27T15:51:07.850Z,8.10
2022-12-27T15:53:53.692Z,7.53
2022-12-27T15:56:55.528Z,7.80
2022-12-27T15:59:41.406Z,8.10
2022-12-27T16:02:38.321Z,7.30
2022-12-27T16:05:14.219Z,8.33
2022-12-27T16:07:46.313Z,7.53
2022-12-27T16:10:48.053Z,7.63
2022-12-27T16:13:46.810Z,7.80
2022-12-27T16:16:56.801Z,7.67
2022-12-27T16:19:58.702Z,7.70
2022-12-27T16:22:34.041Z,7.90
2022-12-27T16:25:30.902Z,7.50
2022-12-27T16:28:03.590Z,8.00
2022-12-27T16:30:41.167Z,7.60
2022-12-27T16:33:28.869Z,7.77
2022-12-27T16:36:06.452Z,8.03
2022-12-27T16:38:38.334Z,7.97
2022-12-27T16:41:16.128Z,7.67
2022-12-27T16:43:55.481Z,8.20
2022-12-27T16:46:44.975Z,7.90
2022-12-27T16:49:44.823Z,8.57
2022-12-27T16:52:38.370Z,7.17
2022-12-27T16:55:27.832Z,7.70
2022-12-27T16:58:23.887Z,7.40
2022-12-27T17:00:53.923Z,7.17
2022-12-27T17:03:38.972Z,7.70
2022-12-27T17:06:56.542Z,7.57
2022-12-27T17:09:44.643Z,7.60
2022-12-27T17:12:20.684Z,8.10
2022-12-27T17:15:02.163Z,8.30
2022-12-27T17:17:31.246Z,8.10
2022-12-27T17:20:04.018Z,7.80
2022-12-27T17:22:35.782Z,9.07
2022-12-27T17:25:05.788Z,8.80
2022-12-27T17:27:57.946Z,7.80
2022-12-27T17:30:40.653Z,8.70
2022-12-27T17:33:23.295Z,8.33
2022-12-27T17:36:22.171Z,8.43
2022-12-27T17:39:04.459Z,7.70
2022-12-27T17:42:04.260Z,9.23
2022-12-27T17:44:44.958Z,8.67
2022-12-27T17:47:38.513Z,8.50
2022-12-27T17:50:13.504Z,9.90
2022-12-27T17:52:59.621Z,9.27
2022-12-27T17:55:47.535Z,9.10
2022-12-27T17:58:18.006Z,8.80
2022-12-27T18:00:54.976Z,9.63
2022-12-27T18:03:28.312Z,9.23
2022-12-27T18:05:56.731Z,9.30
2022-12-27T18:08:29.630Z,8.43
2022-12-27T18:10:59.121Z,8.37
2022-12-27T18:13:32.613Z,9.60
2022-12-27T18:16:06.132Z,9.20
2022-12-27T18:18:36.311Z,8.60
2022-12-27T18:21:07.139Z,8.10
2022-12-27T18:23:41.688Z,8.53
2022-12-27T18:26:13.764Z,8.57
2022-12-27T18:28:43.759Z,8.80
2022-12-27T18:31:20.073Z,9.70
2022-12-27T18:33:52.402Z,10.00
2022-12-27T18:36:28.290Z,9.40
2022-12-27T18:39:01.264Z,10.27
2022-12-27T18:41:37.187Z,9.60
2022-12-27T18:44:12.888Z,8.93
2022-12-27T18:46:41.473Z,9.07
2022-12-27T18:49:24.530Z,8.70
2022-12-27T18:51:54.706Z,8.17
2022-12-27T18:54:32.312Z,8.47
2022-12-27T18:57:02.584Z,9.00
2022-12-27T18:59:32.190Z,8.90
2022-12-27T19:02:03.653Z,9.43
2022-12-27T19:04:34.475Z,9.40
2022-12-27T19:07:11.068Z,8.50
2022-12-27T19:09:42.790Z,8.97
2022-12-27T19:12:35.165Z,8.40
2022-12-27T19:15:16.554Z,7.73
2022-12-27T19:17:48.750Z,7.00
2022-12-27T19:20:24.382Z,7.90
2022-12-27T19:22:55.393Z,9.20
2022-12-27T19:25:26.651Z,9.60
2022-12-27T19:28:04.245Z,9.20
2022-12-27T19:30:35.377Z,8.50
2022-12-27T19:33:07.604Z,8.10
2022-12-27T19:35:37.700Z,8.07
2022-12-27T19:38:06.128Z,8.20
2022-12-27T19:40:34.593Z,8.03
2022-12-27T19:43:02.973Z,8.73
2022-12-27T19:45:31.401Z,9.20
2022-12-27T19:47:59.861Z,9.33
2022-12-27T19:50:28.285Z,8.20
2022-12-27T19:52:58.062Z,8.50
2022-12-27T19:55:28.110Z,9.57
2022-12-27T19:57:56.780Z,10.63
2022-12-27T20:00:25.293Z,11.93
2022-12-27T20:02:53.841Z,12.80
2022-12-27T20:06:13.723Z,12.50
2022-12-27T20:08:25.113Z,9.93
2022-12-27T20:10:53.716Z,9.30
2022-12-27T20:13:22.389Z,9.40
2022-12-27T20:15:51.723Z,9.23
2022-12-27T20:18:20.388Z,9.30
2022-12-27T20:20:49.170Z,9.27
2022-12-27T20:23:19.392Z,9.30
2022-12-27T20:25:50.423Z,9.20
2022-12-27T20:28:19.930Z,8.93
2022-12-27T20:30:48.446Z,9.20
2022-12-27T20:33:17.331Z,8.53
2022-12-27T20:35:45.801Z,9.50
2022-12-27T20:38:14.174Z,10.00
2022-12-27T20:40:43.897Z,9.87
2022-12-27T20:43:12.251Z,10.00
2022-12-27T20:45:40.735Z,10.27
2022-12-27T20:48:09.469Z,10.17
2022-12-27T20:50:37.979Z,10.17
2022-12-27T20:53:06.557Z,10.60
2022-12-27T20:55:35.050Z,13.63
2022-12-27T20:58:05.013Z,13.63
2022-12-27T21:00:33.331Z,13.90
2022-12-27T21:03:01.906Z,14.03
2022-12-27T21:05:30.317Z,12.40
2022-12-27T21:07:58.732Z,12.83
2022-12-27T21:10:27.168Z,12.60
2022-12-27T21:12:55.505Z,12.27
2022-12-27T21:15:25.169Z,11.90
2022-12-27T21:17:53.540Z,12.07
2022-12-27T21:20:21.856Z,12.93
2022-12-27T21:22:50.217Z,11.33
2022-12-27T21:25:18.641Z,12.20
2022-12-27T21:27:48.591Z,12.30
2022-12-27T21:30:16.970Z,12.03
2022-12-27T21:32:46.679Z,11.10
2022-12-27T21:35:15.101Z,10.43
2022-12-27T21:37:43.500Z,11.20
2022-12-27T21:40:13.189Z,10.90
2022-12-27T21:42:41.904Z,10.80
2022-12-27T21:45:10.759Z,10.47
2022-12-27T21:47:39.056Z,11.70
2022-12-27T21:50:09.288Z,11.17
2022-12-27T21:52:37.717Z,11.50
2022-12-27T21:55:06.517Z,15.17
2022-12-27T21:57:34.901Z,14.40
2022-12-27T22:00:03.221Z,15.27
2022-12-27T22:02:33.264Z,13.30
2022-12-27T22:05:01.780Z,14.80
2022-12-27T22:07:31.420Z,14.03
2022-12-27T22:09:59.697Z,24.53
2022-12-27T22:12:29.930Z,18.43
2022-12-27T22:14:58.361Z,14.83
2022-12-27T22:17:26.680Z,13.93
2022-12-27T22:19:55.078Z,13.30
2022-12-27T22:22:23.441Z,12.07
2022-12-27T22:24:53.047Z,11.53
2022-12-27T22:27:21.465Z,12.07
2022-12-27T22:29:49.847Z,10.50
2022-12-27T22:32:18.244Z,11.10
2022-12-27T22:34:46.679Z,11.97
2022-12-27T22:37:14.974Z,11.97
2022-12-27T22:39:43.320Z,10.93
2022-12-27T22:42:12.967Z,11.00
2022-12-27T22:44:41.388Z,10.43
2022-12-27T22:47:26.902Z,10.90
2022-12-27T22:49:56.146Z,9.87
2022-12-27T22:52:24.519Z,11.70
2022-12-27T22:55:04.871Z,11.43
2022-12-27T22:57:37.124Z,12.73
2022-12-27T23:00:09.565Z,10.73
2022-12-27T23:02:38.235Z,12.77
2022-12-27T23:05:07.227Z,14.07
2022-12-27T23:08:04.286Z,14.37
2022-12-27T23:10:24.143Z,14.57
2022-12-27T23:12:53.825Z,15.80
2022-12-27T23:15:22.157Z,16.43
2022-12-27T23:17:50.528Z,16.50
2022-12-27T23:20:18.988Z,15.80
2022-12-27T23:22:47.392Z,15.40
2022-12-27T23:25:15.938Z,15.23
2022-12-27T23:27:44.302Z,13.80
2022-12-27T23:30:15.231Z,14.70
2022-12-27T23:32:43.671Z,15.93
2022-12-27T23:35:12.110Z,14.57
2022-12-27T23:37:40.494Z,13.00
2022-12-27T23:40:09.809Z,13.30
2022-12-27T23:42:38.041Z,14.00
2022-12-27T23:45:06.968Z,13.63
2022-12-27T23:47:36.688Z,13.90
2022-12-27T23:50:05.874Z,12.53
2022-12-27T23:52:34.321Z,12.60
2022-12-27T23:55:02.744Z,13.17
2022-12-27T23:57:31.078Z,13.90
2022-12-27T23:59:59.418Z,13.70
